createdAt,value
2019-01-25T00:03:10.224Z,-2.20
2019-01-25T00:07:14.668Z,-2.30
2019-01-25T00:11:19.537Z,-2.30
2019-01-25T00:15:24.460Z,-2.30
2019-01-25T00:19:29.656Z,-2.30
2019-01-25T00:23:34.676Z,-2.20
2019-01-25T00:27:39.946Z,-2.20
2019-01-25T00:31:44.878Z,-2.20
2019-01-25T00:35:49.805Z,-2.20
2019-01-25T00:39:54.814Z,-2.20
2019-01-25T00:43:59.759Z,-2.20
2019-01-25T00:48:05.001Z,-2.20
2019-01-25T00:52:09.930Z,-2.20
2019-01-25T00:56:14.855Z,-2.30
2019-01-25T01:00:23.234Z,-2.30
2019-01-25T01:04:28.263Z,-2.20
2019-01-25T01:08:33.578Z,-2.20
2019-01-25T01:12:38.548Z,-2.20
2019-01-25T01:16:43.514Z,-2.20
2019-01-25T01:20:48.426Z,-2.20
2019-01-25T01:24:53.399Z,-2.20
2019-01-25T01:28:58.323Z,-2.20
2019-01-25T01:33:03.279Z,-2.20
2019-01-25T01:37:08.282Z,-2.20
2019-01-25T01:41:13.215Z,-2.20
2019-01-25T01:45:18.184Z,-2.20
2019-01-25T01:49:26.950Z,-2.20
2019-01-25T01:53:31.882Z,-2.20
2019-01-25T01:57:36.823Z,-2.10
2019-01-25T02:01:42.046Z,-2.10
2019-01-25T02:05:46.955Z,-2.10
2019-01-25T02:09:52.002Z,-2.10
2019-01-25T02:13:57.006Z,-2.10
2019-01-25T02:18:01.944Z,-2.10
2019-01-25T02:22:06.995Z,-2.10
2019-01-25T02:26:11.901Z,-2.10
2019-01-25T02:30:20.025Z,-2.10
2019-01-25T02:34:25.263Z,-2.10
2019-01-25T02:38:30.261Z,-2.00
2019-01-25T02:42:35.188Z,-2.00
2019-01-25T02:46:40.122Z,-2.00
2019-01-25T02:50:45.055Z,-2.10
2019-01-25T02:54:50.348Z,-2.10
2019-01-25T02:58:55.277Z,-2.00
2019-01-25T03:03:00.221Z,-2.10
2019-01-25T03:07:05.146Z,-2.00
2019-01-25T03:11:10.213Z,-2.00
2019-01-25T03:15:18.249Z,-2.10
2019-01-25T03:19:23.209Z,-2.00
2019-01-25T03:23:28.428Z,-2.00
2019-01-25T03:27:33.369Z,-2.00
2019-01-25T03:31:38.320Z,-2.00
2019-01-25T03:35:43.249Z,-2.00
2019-01-25T03:39:48.260Z,-2.00
2019-01-25T03:43:53.177Z,-2.00
2019-01-25T03:47:58.200Z,-2.00
2019-01-25T03:52:03.123Z,-2.10
2019-01-25T03:56:08.067Z,-2.10
2019-01-25T04:00:16.601Z,-2.00
2019-01-25T04:04:21.545Z,-2.00
2019-01-25T04:08:26.478Z,-1.90
2019-01-25T04:12:31.429Z,-2.00
2019-01-25T04:16:36.346Z,-1.90
2019-01-25T04:20:41.386Z,-1.90
2019-01-25T04:24:46.297Z,-1.90
2019-01-25T04:28:51.612Z,-1.90
2019-01-25T04:32:56.525Z,-1.90
2019-01-25T04:37:01.467Z,-1.90
2019-01-25T04:41:11.490Z,-1.90
2019-01-25T04:45:15.726Z,-1.80
2019-01-25T04:49:20.754Z,-1.80
2019-01-25T04:53:25.676Z,-1.90
2019-01-25T04:57:30.661Z,-1.80
2019-01-25T05:01:35.575Z,-1.80
2019-01-25T05:05:40.564Z,-1.90
2019-01-25T05:09:45.814Z,-1.80
2019-01-25T05:13:50.710Z,-1.80
2019-01-25T05:17:55.984Z,-1.90
2019-01-25T05:22:00.911Z,-1.80
2019-01-25T05:26:05.808Z,-1.80
2019-01-25T05:30:12.160Z,-1.80
2019-01-25T05:34:17.045Z,-1.80
2019-01-25T05:38:22.011Z,-1.80
2019-01-25T05:42:26.934Z,-1.80
2019-01-25T05:46:31.863Z,-1.70
2019-01-25T05:50:36.787Z,-1.80
2019-01-25T05:54:44.143Z,-1.80
2019-01-25T05:58:49.241Z,-1.80
2019-01-25T06:02:54.207Z,-1.80
2019-01-25T06:06:59.169Z,-1.80
2019-01-25T06:11:14.635Z,-1.80
2019-01-25T06:15:19.654Z,-1.80
2019-01-25T06:19:24.557Z,-1.80
2019-01-25T06:23:29.585Z,-1.70
2019-01-25T06:27:38.225Z,-1.70
2019-01-25T06:31:43.322Z,-1.70
2019-01-25T06:35:48.227Z,-1.70
2019-01-25T06:39:53.237Z,-1.70
2019-01-25T06:43:58.411Z,-1.70
2019-01-25T06:48:03.430Z,-1.80
2019-01-25T06:52:08.358Z,-1.70
2019-01-25T06:56:13.508Z,-1.70
2019-01-25T07:00:20.710Z,-1.80
2019-01-25T07:04:25.664Z,-1.70
2019-01-25T07:08:30.573Z,-1.70
2019-01-25T07:12:35.459Z,-1.80
2019-01-25T07:16:40.832Z,-1.70
2019-01-25T07:20:46.067Z,-1.70
2019-01-25T07:24:57.195Z,-1.60
2019-01-25T07:28:57.590Z,-1.60
2019-01-25T07:33:03.027Z,-1.60
2019-01-25T07:37:07.963Z,-1.60
2019-01-25T07:41:12.875Z,-1.50
2019-01-25T07:45:17.842Z,-1.60
2019-01-25T07:49:23.043Z,-1.60
2019-01-25T07:53:27.979Z,-1.50
2019-01-25T07:57:32.992Z,-1.50
2019-01-25T08:01:38.257Z,-1.50
2019-01-25T08:05:43.201Z,-1.40
2019-01-25T08:09:48.083Z,-1.40
2019-01-25T08:13:53.004Z,-1.30
2019-01-25T08:17:57.926Z,-1.20
2019-01-25T08:22:02.812Z,-1.20
2019-01-25T08:26:07.799Z,-1.10
2019-01-25T08:30:14.395Z,-1.20
2019-01-25T08:34:19.404Z,-1.10
2019-01-25T08:38:24.334Z,-1.00
2019-01-25T08:42:29.289Z,-1.10
2019-01-25T08:46:35.096Z,-1.00
2019-01-25T08:50:40.097Z,-1.00
2019-01-25T08:54:44.999Z,-0.80
2019-01-25T08:58:49.915Z,-0.90
2019-01-25T09:02:54.818Z,-0.80
2019-01-25T09:06:59.723Z,-0.80
2019-01-25T09:11:04.634Z,-0.60
2019-01-25T09:15:13.409Z,-0.60
2019-01-25T09:19:18.324Z,-0.50
2019-01-25T09:23:23.219Z,-0.50
2019-01-25T09:27:28.117Z,-0.40
2019-01-25T09:31:33.025Z,-0.50
2019-01-25T09:35:37.949Z,-0.40
2019-01-25T09:39:42.841Z,-0.30
2019-01-25T09:43:47.844Z,-0.30
2019-01-25T09:47:52.760Z,-0.30
2019-01-25T09:51:57.683Z,-0.20
2019-01-25T09:56:02.595Z,-0.10
2019-01-25T10:00:19.794Z,0.00
2019-01-25T10:04:24.677Z,0.00
2019-01-25T10:08:29.602Z,0.10
2019-01-25T10:12:38.837Z,0.10
2019-01-25T10:16:41.136Z,0.10
2019-01-25T10:20:46.030Z,0.30
2019-01-25T10:24:50.938Z,0.30
2019-01-25T10:28:55.869Z,0.40
2019-01-25T10:33:00.780Z,0.30
2019-01-25T10:37:05.843Z,0.50
2019-01-25T10:41:10.739Z,0.50
2019-01-25T10:45:25.344Z,0.60
2019-01-25T10:49:30.264Z,0.60
2019-01-25T10:53:35.144Z,0.70
2019-01-25T10:57:40.103Z,0.90
2019-01-25T11:01:44.995Z,0.80
2019-01-25T11:05:50.081Z,0.80
2019-01-25T11:09:54.981Z,0.80
2019-01-25T11:13:59.907Z,0.90
2019-01-25T11:18:05.297Z,0.90
2019-01-25T11:22:10.198Z,0.80
2019-01-25T11:26:15.095Z,0.80
2019-01-25T11:30:20.108Z,0.90
2019-01-25T11:34:25.037Z,1.00
2019-01-25T11:38:29.938Z,1.10
2019-01-25T11:42:34.855Z,1.10
2019-01-25T11:46:40.045Z,1.20
2019-01-25T11:50:44.986Z,1.30
2019-01-25T11:54:50.490Z,1.30
2019-01-25T11:58:55.470Z,1.50
2019-01-25T12:03:00.442Z,1.40
2019-01-25T12:07:05.345Z,1.60
2019-01-25T12:11:10.279Z,1.70
2019-01-25T12:15:16.915Z,1.90
2019-01-25T12:19:21.785Z,1.80
2019-01-25T12:23:26.716Z,2.10
2019-01-25T12:27:31.651Z,1.80
2019-01-25T12:31:37.274Z,1.60
2019-01-25T12:35:44.450Z,1.70
2019-01-25T12:39:49.467Z,1.70
2019-01-25T12:43:54.460Z,1.90
2019-01-25T12:47:59.819Z,2.00
2019-01-25T12:52:09.899Z,2.20
2019-01-25T12:56:14.786Z,2.10
2019-01-25T13:00:23.700Z,2.30
2019-01-25T13:04:28.671Z,2.40
2019-01-25T13:08:33.669Z,2.30
2019-01-25T13:12:38.563Z,2.20
2019-01-25T13:16:43.698Z,2.50
2019-01-25T13:20:48.960Z,2.50
2019-01-25T13:24:53.900Z,2.50
2019-01-25T13:28:58.775Z,2.70
2019-01-25T13:33:03.757Z,2.40
2019-01-25T13:37:08.993Z,2.50
2019-01-25T13:41:13.903Z,2.40
2019-01-25T13:45:19.587Z,2.50
2019-01-25T13:49:24.495Z,2.60
2019-01-25T13:53:29.433Z,2.50
2019-01-25T13:57:34.308Z,2.50
2019-01-25T14:01:39.236Z,2.50
2019-01-25T14:05:44.371Z,2.50
2019-01-25T14:09:49.716Z,2.50
2019-01-25T14:13:54.685Z,2.50
2019-01-25T14:17:59.659Z,2.50
2019-01-25T14:22:04.596Z,2.50
2019-01-25T14:26:09.523Z,2.60
2019-01-25T14:30:50.517Z,2.60
2019-01-25T14:34:55.824Z,2.40
2019-01-25T14:39:00.808Z,2.40
2019-01-25T14:43:05.801Z,2.40
2019-01-25T14:47:10.730Z,2.40
2019-01-25T14:51:15.788Z,2.40
2019-01-25T14:55:20.788Z,2.30
2019-01-25T14:59:25.978Z,2.30
2019-01-25T15:03:30.996Z,2.30
2019-01-25T15:07:35.913Z,2.20
2019-01-25T15:11:40.821Z,2.30
2019-01-25T15:15:45.950Z,2.30
2019-01-25T15:19:51.199Z,2.30
2019-01-25T15:23:56.075Z,2.20
2019-01-25T15:28:00.976Z,2.20
2019-01-25T15:32:06.095Z,2.20
2019-01-25T15:36:11.684Z,2.10
2019-01-25T15:40:17.340Z,2.00
2019-01-25T15:44:22.325Z,1.90
2019-01-25T15:48:28.919Z,1.80
2019-01-25T15:52:33.859Z,1.70
2019-01-25T15:56:38.817Z,1.70
2019-01-25T16:00:44.102Z,1.60
2019-01-25T16:04:49.103Z,1.60
2019-01-25T16:08:54.283Z,1.60
2019-01-25T16:12:59.324Z,1.50
2019-01-25T16:17:04.342Z,1.50
2019-01-25T16:21:09.289Z,1.50
2019-01-25T16:25:27.118Z,1.50
2019-01-25T16:29:32.077Z,1.50
2019-01-25T16:33:37.347Z,1.50
2019-01-25T16:37:42.390Z,1.50
2019-01-25T16:41:47.452Z,1.40
2019-01-25T16:45:52.493Z,1.40
2019-01-25T16:49:57.541Z,1.50
2019-01-25T16:54:02.582Z,1.40
2019-01-25T16:58:08.113Z,1.40
2019-01-25T17:02:13.094Z,1.50
2019-01-25T17:06:18.019Z,1.50
2019-01-25T17:10:23.032Z,1.50
2019-01-25T17:14:33.350Z,1.50
2019-01-25T17:18:35.139Z,1.50
2019-01-25T17:22:40.096Z,1.50
2019-01-25T17:26:44.997Z,1.50
2019-01-25T17:30:50.334Z,1.50
2019-01-25T17:34:55.513Z,1.50
2019-01-25T17:39:00.470Z,1.50
2019-01-25T17:43:05.542Z,1.50
2019-01-25T17:47:10.494Z,1.50
2019-01-25T17:51:15.489Z,1.60
2019-01-25T17:55:20.384Z,1.60
2019-01-25T17:59:26.263Z,1.60
2019-01-25T18:03:31.274Z,1.60
2019-01-25T18:07:36.201Z,1.60
2019-01-25T18:11:41.703Z,1.70
2019-01-25T18:15:46.713Z,1.70
2019-01-25T18:19:52.543Z,1.70
2019-01-25T18:23:59.449Z,1.60
2019-01-25T18:28:05.502Z,1.70
2019-01-25T18:32:10.614Z,1.70
2019-01-25T18:36:15.627Z,1.70
2019-01-25T18:40:21.076Z,1.80
2019-01-25T18:44:25.965Z,1.70
2019-01-25T18:48:30.891Z,1.80
2019-01-25T18:52:36.231Z,1.80
2019-01-25T18:56:42.202Z,1.80
2019-01-25T19:00:47.117Z,1.80
2019-01-25T19:04:52.027Z,1.80
2019-01-25T19:08:56.975Z,1.80
2019-01-25T19:13:01.901Z,1.80
2019-01-25T19:17:06.801Z,1.80
2019-01-25T19:21:11.749Z,1.90
2019-01-25T19:25:16.752Z,1.90
2019-01-25T19:29:21.673Z,1.90
2019-01-25T19:33:26.663Z,1.90
2019-01-25T19:37:31.654Z,2.00
2019-01-25T19:41:36.565Z,1.90
2019-01-25T19:45:41.631Z,2.00
2019-01-25T19:49:46.553Z,2.00
2019-01-25T19:53:51.618Z,2.00
2019-01-25T19:57:56.978Z,2.00
2019-01-25T20:02:02.197Z,2.00
2019-01-25T20:06:07.098Z,2.00
2019-01-25T20:10:12.286Z,2.00
2019-01-25T20:14:17.368Z,2.10
2019-01-25T20:18:22.661Z,2.10
2019-01-25T20:22:27.822Z,2.10
2019-01-25T20:26:32.901Z,2.10
2019-01-25T20:30:37.985Z,2.20
2019-01-25T20:34:42.954Z,2.20
2019-01-25T20:38:47.935Z,2.30
2019-01-25T20:42:52.881Z,2.30
2019-01-25T20:46:57.774Z,2.40
2019-01-25T20:51:03.098Z,2.40
2019-01-25T20:55:09.907Z,2.40
2019-01-25T20:59:14.807Z,2.40
2019-01-25T21:03:19.821Z,2.50
2019-01-25T21:07:27.840Z,2.50
2019-01-25T21:11:32.811Z,2.50
2019-01-25T21:15:37.868Z,2.60
2019-01-25T21:19:42.801Z,2.60
2019-01-25T21:23:47.803Z,2.70
2019-01-25T21:27:52.712Z,2.70
2019-01-25T21:31:57.634Z,2.70
2019-01-25T21:36:02.594Z,2.80
2019-01-25T21:40:10.827Z,2.80
2019-01-25T21:44:15.824Z,2.90
2019-01-25T21:48:20.755Z,2.90
2019-01-25T21:52:25.795Z,2.90
2019-01-25T21:56:30.825Z,3.00
2019-01-25T22:00:35.945Z,3.00
2019-01-25T22:04:41.188Z,3.10
2019-01-25T22:08:46.181Z,3.10
2019-01-25T22:12:51.211Z,3.10
2019-01-25T22:16:56.490Z,3.00
2019-01-25T22:21:01.379Z,3.00
2019-01-25T22:25:07.268Z,3.10
2019-01-25T22:29:12.184Z,3.10
2019-01-25T22:33:17.191Z,3.10
2019-01-25T22:37:23.900Z,3.20
2019-01-25T22:41:28.691Z,3.30
2019-01-25T22:45:33.627Z,3.30
2019-01-25T22:49:38.559Z,3.40
2019-01-25T22:53:43.805Z,3.40
2019-01-25T22:57:48.690Z,3.40
2019-01-25T23:01:53.611Z,3.50
2019-01-25T23:06:33.948Z,3.60
2019-01-25T23:10:39.192Z,3.60
2019-01-25T23:14:44.091Z,3.60
2019-01-25T23:18:49.009Z,3.60
2019-01-25T23:22:53.927Z,3.60
2019-01-25T23:26:58.887Z,3.70
2019-01-25T23:31:03.817Z,3.60
2019-01-25T23:35:08.693Z,3.60
2019-01-25T23:39:13.675Z,3.70
2019-01-25T23:43:18.560Z,3.70
2019-01-25T23:47:25.182Z,3.80
2019-01-25T23:51:30.153Z,3.80
2019-01-25T23:55:35.231Z,3.80
2019-01-25T23:59:40.135Z,3.90
